Ribe, Denmark
Current Conditions -  °F | °C
As of 8:50 PM on Friday 24 Oct 2014 (Local Time) from EKEB Reporting Station
Drizzle Drizzle  
Wind Chill: 54°   Ceiling: 700
Heat Index: 54°   Visibility: 3mi
Dew Point: 52°   Wind: 13mph
Humidity: 94%   Direction: 170°S
Pressure: 29.94"   Gusts: NA
Location:  55.33°N, 8.76°E
Report Text: EKEB 241850Z AUTO 17011KT 140V200 5000NDV DZ OVC007///12/11 Q1014
Loading
Personal Weather Stations






























Interactive Weather Map
Tropical Storm Tracking
New forecast layout! Learn more

10-Day Weather Forecast

Advertisements
Track Severe Weather on mobile